Time;durP1;ratioP1;P1;durP2;ratioP2;P2;SDS_P1;SDS_P2;PMS_P1;PMS_P2;Temp;Humidity;BMP_temperature;BMP_pressure;BME280_temperature;BME280_humidity;BME280_pressure;Samples;Min_cycle;Max_cycle;Signal;HPM_P1;HPM_P2
2024/03/05 00:01:49;;;;;;;3.00;2.70;;;;;;;-1.02;100.00;102897.47;5032699;28;20037;-64
2024/03/05 00:04:15;;;;;;;3.40;2.60;;;;;;;-1.20;100.00;102882.19;5032300;28;20037;-67
2024/03/05 00:06:41;;;;;;;3.27;2.27;;;;;;;-1.03;100.00;102914.91;5032544;28;20764;-65
2024/03/05 00:09:06;;;;;;;3.67;2.73;;;;;;;-1.07;100.00;102915.03;5031467;28;20260;-70
2024/03/05 00:11:32;;;;;;;2.07;1.80;;;;;;;-1.07;100.00;102920.25;5033110;28;20041;-67
2024/03/05 00:13:58;;;;;;;3.23;2.40;;;;;;;-1.21;100.00;102891.78;5032486;28;20045;-68
2024/03/05 00:16:24;;;;;;;3.17;2.30;;;;;;;-1.16;100.00;102910.84;5032282;28;20620;-67
2024/03/05 00:18:50;;;;;;;2.93;2.40;;;;;;;-1.24;100.00;102894.47;5032397;28;20045;-64
2024/03/05 00:21:15;;;;;;;3.93;2.03;;;;;;;-1.27;100.00;102902.41;5032443;28;20129;-66
2024/03/05 00:23:41;;;;;;;3.80;2.40;;;;;;;-1.21;100.00;102925.78;5032585;28;20040;-68
2024/03/05 00:26:08;;;;;;;2.33;1.90;;;;;;;-1.65;100.00;102858.81;5032273;28;20102;-66
2024/03/05 00:28:34;;;;;;;2.43;2.00;;;;;;;-1.29;100.00;102925.09;5031859;28;20163;-66
2024/03/05 00:31:00;;;;;;;3.97;2.80;;;;;;;-1.27;100.00;102933.78;5032704;28;20279;-65
2024/03/05 00:33:25;;;;;;;2.53;2.33;;;;;;;-1.32;100.00;102944.31;5032362;28;20732;-67
2024/03/05 00:35:51;;;;;;;2.37;1.80;;;;;;;-1.69;100.00;102871.09;5033040;28;20260;-66
2024/03/05 00:38:17;;;;;;;2.43;2.23;;;;;;;-1.34;100.00;102937.41;5032107;28;20124;-66
2024/03/05 00:40:43;;;;;;;2.50;1.73;;;;;;;-1.39;100.00;102940.13;5032550;28;20033;-65
2024/03/05 00:43:09;;;;;;;5.93;2.10;;;;;;;-1.48;100.00;102929.84;5031860;28;20047;-68
2024/03/05 00:45:35;;;;;;;3.80;1.70;;;;;;;-1.52;100.00;102927.34;5032153;28;20650;-68
2024/03/05 00:48:02;;;;;;;3.67;1.90;;;;;;;-1.75;100.00;102888.63;5030832;28;20037;-66
2024/03/05 00:50:28;;;;;;;2.80;1.90;;;;;;;-1.60;100.00;102920.53;5032058;28;20697;-65
2024/03/05 00:52:54;;;;;;;2.20;1.60;;;;;;;-1.47;100.00;102941.16;5031621;28;20264;-66
2024/03/05 00:55:20;;;;;;;4.50;2.33;;;;;;;-1.57;100.00;102925.69;5030710;28;20037;-67
2024/03/05 00:57:45;;;;;;;3.50;1.70;;;;;;;-1.74;100.00;102885.97;5032307;28;20080;-66
2024/03/05 01:00:15;;;;;;;3.63;2.73;;;;;;;-1.43;100.00;102961.16;5031679;28;20039;-66
2024/03/05 01:02:44;;;;;;;3.73;2.03;;;;;;;-1.41;100.00;102946.28;5031552;28;20489;-67
2024/03/05 01:05:12;;;;;;;;;;;;;;;-1.33;100.00;102954.81;5031874;28;20841;-63
2024/03/05 01:07:38;;;;;;;5.97;3.22;;;;;;;-1.36;100.00;102949.66;5031520;28;19917;-69
2024/03/05 01:10:05;;;;;;;4.83;3.10;;;;;;;-1.31;100.00;102947.81;5031508;28;20068;-66
2024/03/05 01:12:31;;;;;;;3.50;3.20;;;;;;;-1.28;100.00;102932.06;5031816;28;20628;-66
2024/03/05 01:14:58;;;;;;;6.57;2.97;;;;;;;-1.11;100.00;102955.22;5031690;28;20330;-67
2024/03/05 01:17:24;;;;;;;5.73;1.90;;;;;;;-1.43;100.00;102898.41;5031443;28;20274;-66
2024/03/05 01:19:49;;;;;;;1.73;1.60;;;;;;;-1.01;99.48;102968.03;5031777;28;20315;-66
2024/03/05 01:22:16;;;;;;;5.07;2.20;;;;;;;-1.04;99.21;102967.25;5031363;28;20306;-67
2024/03/05 01:24:41;;;;;;;2.00;1.47;;;;;;;-1.13;98.57;102973.56;5030368;28;20041;-67
2024/03/05 01:27:07;;;;;;;3.10;1.60;;;;;;;-1.40;99.11;102937.56;5031286;28;20341;-65
2024/03/05 01:29:32;;;;;;;4.33;2.07;;;;;;;-1.47;99.56;102935.94;5031752;28;20041;-67
2024/03/05 01:31:59;;;;;;;4.83;1.73;;;;;;;-1.30;99.60;102973.06;5031456;28;20039;-65
2024/03/05 01:34:25;;;;;;;3.37;1.80;;;;;;;-1.50;99.51;102941.25;5031307;28;20033;-70
2024/03/05 01:36:56;;;;;;;3.27;1.50;;;;;;;-1.46;100.00;102953.34;5031004;28;20636;-67
2024/03/05 01:39:25;;;;;;;4.23;1.93;;;;;;;-1.41;99.55;102970.69;5031174;28;20688;-67
2024/03/05 01:41:55;;;;;;;4.07;1.80;;;;;;;-1.87;99.60;102889.75;5031257;28;20685;-66
2024/03/05 01:44:21;;;;;;;2.50;1.97;;;;;;;-1.57;100.00;102956.19;5033589;28;20358;-68
2024/03/05 01:46:49;;;;;;;5.10;1.80;;;;;;;-1.50;100.00;102967.38;5035924;28;20275;-68
2024/03/05 01:49:17;;;;;;;3.83;1.67;;;;;;;-1.73;100.00;102939.97;5035245;28;20334;-68
2024/03/05 01:51:44;;;;;;;4.03;1.83;;;;;;;-1.63;100.00;102962.41;5035000;28;20272;-64
2024/03/05 01:54:12;;;;;;;4.13;1.70;;;;;;;-1.62;100.00;102963.25;5034911;28;20687;-67
2024/03/05 01:56:38;;;;;;;3.03;1.67;;;;;;;-1.62;100.00;102958.91;5034553;28;20609;-67
2024/03/05 01:59:05;;;;;;;4.60;1.60;;;;;;;-1.72;100.00;102957.38;5034539;28;20041;-69
2024/03/05 02:01:31;;;;;;;5.23;1.87;;;;;;;-1.76;100.00;102942.63;5035214;28;20295;-69
2024/03/05 02:03:58;;;;;;;3.80;1.67;;;;;;;-1.60;100.00;102970.19;5035281;28;20029;-66
2024/03/05 02:06:24;;;;;;;5.27;1.80;;;;;;;-1.68;100.00;102969.47;5034760;28;20516;-68
2024/03/05 02:08:50;;;;;;;3.33;1.60;;;;;;;-1.84;100.00;102946.28;5034503;28;20261;-64
2024/03/05 02:11:16;;;;;;;4.30;1.60;;;;;;;-1.65;100.00;102976.38;5034044;28;20029;-64
2024/03/05 02:13:45;;;;;;;4.07;2.23;;;;;;;-1.78;100.00;102961.81;5034254;28;20029;-68
2024/03/05 02:16:11;;;;;;;2.27;1.60;;;;;;;-1.73;100.00;102973.94;5034366;28;20264;-67
2024/03/05 02:18:37;;;;;;;1.97;1.80;;;;;;;-1.91;100.00;102950.78;5034514;28;20276;-65
2024/03/05 02:21:03;;;;;;;2.47;1.70;;;;;;;-1.77;100.00;102972.25;5034944;28;20034;-67
2024/03/05 02:23:29;;;;;;;3.30;1.50;;;;;;;-1.83;100.00;102961.91;5033870;28;20033;-64
2024/03/05 02:25:58;;;;;;;1.63;1.47;;;;;;;-1.87;100.00;102962.88;5033928;28;20303;-67
2024/03/05 02:28:23;;;;;;;2.45;1.83;;;;;;;-1.74;100.00;102972.19;5034721;28;20041;-64
2024/03/05 02:30:50;;;;;;;2.83;1.63;;;;;;;-1.68;99.08;102976.47;5038375;28;20037;-65
2024/03/05 02:33:16;;;;;;;2.47;2.03;;;;;;;-1.52;98.92;102990.06;5035855;28;20029;-66
2024/03/05 02:35:42;;;;;;;2.90;1.90;;;;;;;-1.59;98.74;102987.56;5033532;28;20766;-67
2024/03/05 02:38:07;;;;;;;3.77;1.80;;;;;;;-1.85;97.80;102948.03;5034331;28;20114;-65
2024/03/05 02:40:33;;;;;;;3.20;1.70;;;;;;;-1.73;98.33;102980.91;5034163;28;20559;-67
2024/03/05 02:42:59;;;;;;;4.17;1.77;;;;;;;-1.74;98.12;102977.41;5034174;28;20128;-68
2024/03/05 02:45:24;;;;;;;2.57;1.63;;;;;;;-1.78;98.91;102978.38;5032879;28;20041;-65
2024/03/05 02:47:51;;;;;;;4.50;1.67;;;;;;;-1.88;98.20;102969.84;5034445;28;20038;-69
2024/03/05 02:50:19;;;;;;;4.33;2.00;;;;;;;-1.80;99.07;102995.81;5034902;28;20037;-63
2024/03/05 02:52:44;;;;;;;2.78;1.42;;;;;;;-1.87;99.38;102984.63;5033912;28;20620;-67
2024/03/05 02:55:11;;;;;;;3.20;1.60;;;;;;;-2.06;99.55;102954.50;5032423;28;20044;-66
2024/03/05 02:57:41;;;;;;;4.57;2.27;;;;;;;-1.87;99.58;102983.78;5032725;28;20503;-69
2024/03/05 03:00:20;;;;;;;3.43;1.70;;;;;;;-1.87;99.09;102996.84;5032076;28;20324;-65
2024/03/05 03:02:48;;;;;;;2.00;1.75;;;;;;;-2.02;99.51;102978.84;5033804;28;20272;-67
2024/03/05 03:05:16;;;;;;;;;;;;;;;-1.93;99.52;103000.41;5034082;28;20048;-67
2024/03/05 03:07:43;;;;;;;2.83;1.90;;;;;;;-2.05;99.88;102984.09;5033654;28;19917;-65
2024/03/05 03:10:11;;;;;;;4.03;1.67;;;;;;;-2.41;99.82;102921.22;5032273;28;20276;-66
2024/03/05 03:12:38;;;;;;;4.50;1.80;;;;;;;-1.99;100.00;102995.31;5033676;28;20291;-64
2024/03/05 03:15:06;;;;;;;3.20;1.60;;;;;;;-2.18;99.26;102967.81;5033325;28;20748;-64
2024/03/05 03:17:33;;;;;;;1.48;1.38;;;;;;;-2.00;99.25;102990.97;5033872;28;20276;-67
2024/03/05 03:19:59;;;;;;;3.43;1.70;;;;;;;-2.10;99.36;102985.94;5034391;28;20351;-67
2024/03/05 03:22:26;;;;;;;2.43;2.00;;;;;;;-2.04;99.44;102991.91;5032487;28;20302;-67
2024/03/05 03:24:52;;;;;;;4.47;2.00;;;;;;;-2.16;98.56;102986.03;5032325;28;20041;-65
2024/03/05 03:27:19;;;;;;;5.03;2.13;;;;;;;-2.62;98.40;102911.13;5033627;28;20293;-68
2024/03/05 03:29:45;;;;;;;3.67;2.00;;;;;;;-2.30;99.52;102974.09;5033564;28;20128;-65
2024/03/05 03:32:11;;;;;;;6.40;2.53;;;;;;;-2.15;99.56;103011.25;5033586;28;20363;-68
2024/03/05 03:34:42;;;;;;;8.20;3.43;;;;;;;-2.14;99.53;103013.84;5033440;28;20037;-67
2024/03/05 03:37:07;;;;;;;4.53;2.47;;;;;;;-2.32;99.12;103009.78;5033986;28;20088;-67
2024/03/05 03:39:36;;;;;;;2.80;1.90;;;;;;;-2.20;99.72;103016.56;5033195;28;20772;-67
2024/03/05 03:42:02;;;;;;;4.50;1.80;;;;;;;-2.20;98.93;103022.66;5033053;28;20033;-69
2024/03/05 03:44:27;;;;;;;3.43;2.10;;;;;;;-2.26;99.42;103027.97;5033114;28;20045;-67
2024/03/05 03:46:53;;;;;;;6.23;1.93;;;;;;;-2.26;98.87;103025.38;5033631;28;20041;-66
2024/03/05 03:49:23;;;;;;;5.00;1.87;;;;;;;-2.27;99.20;103025.41;5033016;28;20044;-66
2024/03/05 03:51:50;;;;;;;5.03;2.20;;;;;;;-2.29;98.67;103038.47;5036068;28;20037;-66
2024/03/05 03:54:16;;;;;;;2.27;1.47;;;;;;;-2.24;98.96;103049.69;5033389;28;20276;-68
2024/03/05 03:56:42;;;;;;;2.43;1.50;;;;;;;-2.27;98.46;103052.34;5033297;28;20731;-67
2024/03/05 03:59:08;;;;;;;5.60;1.80;;;;;;;-2.39;98.91;103026.44;5032763;28;20272;-68
2024/03/05 04:01:35;;;;;;;3.43;2.00;;;;;;;-2.74;98.74;102976.56;5031954;28;20049;-66
2024/03/05 04:04:02;;;;;;;3.20;1.53;;;;;;;-2.38;99.06;103048.16;5015676;28;20477;-66
2024/03/05 04:06:29;;;;;;;2.92;1.80;;;;;;;-2.39;98.70;103049.91;5032626;28;20276;-68
2024/03/05 04:08:55;;;;;;;7.03;1.70;;;;;;;-2.44;98.53;103043.06;5033060;28;20043;-69
2024/03/05 04:11:21;;;;;;;5.40;1.50;;;;;;;-2.23;97.31;103077.53;5032791;28;20033;-69
2024/03/05 04:13:49;;;;;;;2.27;1.67;;;;;;;-2.21;97.15;103065.31;5033544;28;20083;-69
2024/03/05 04:16:15;;;;;;;6.15;2.33;;;;;;;-2.20;96.60;103061.81;5032740;28;20754;-69
2024/03/05 04:18:41;;;;;;;3.60;1.77;;;;;;;-2.36;96.24;103031.59;5032600;28;20037;-70
2024/03/05 04:21:06;;;;;;;1.67;1.53;;;;;;;-2.27;96.71;103051.50;5032667;28;20040;-69
2024/03/05 04:23:33;;;;;;;4.27;2.13;;;;;;;-2.22;95.84;103075.78;5033363;28;20144;-66
2024/03/05 04:26:07;;;;;;;2.60;1.83;;;;;;;-2.19;96.27;103066.13;5032045;28;20072;-69
2024/03/05 04:28:48;;;;;;;2.20;1.90;;;;;;;-2.30;95.87;103041.97;5032167;28;20044;-68
2024/03/05 04:31:16;;;;;;;3.50;1.75;;;;;;;-2.16;95.00;103059.13;5031039;28;20049;-70
2024/03/05 04:33:43;;;;;;;2.00;1.63;;;;;;;-1.92;94.35;103079.63;5032425;28;20040;-66
2024/03/05 04:36:09;;;;;;;2.55;1.80;;;;;;;-1.89;93.87;103074.34;5031114;28;20515;-68
2024/03/05 04:38:40;;;;;;;2.30;2.10;;;;;;;-1.87;93.05;103070.81;5032599;28;20041;-67
2024/03/05 04:41:05;;;;;;;3.75;1.38;;;;;;;-1.73;92.13;103082.78;5031271;28;20119;-68
2024/03/05 04:43:31;;;;;;;7.33;2.43;;;;;;;-1.84;91.60;103054.22;5030431;28;20033;-66
2024/03/05 04:45:57;;;;;;;5.40;1.50;;;;;;;-1.65;91.71;103073.94;5031897;28;20060;-67
2024/03/05 04:48:23;;;;;;;4.33;1.93;;;;;;;-1.68;91.01;103071.38;5032118;28;20766;-66
2024/03/05 04:50:51;;;;;;;4.33;1.50;;;;;;;-1.71;90.27;103055.75;5030458;28;20272;-68
2024/03/05 04:53:16;;;;;;;5.33;3.47;;;;;;;-1.51;90.04;103088.47;5031741;28;20037;-68
2024/03/05 04:55:42;;;;;;;4.57;1.87;;;;;;;-1.60;89.42;103059.00;5032003;28;20759;-67
2024/03/05 04:58:08;;;;;;;5.77;1.50;;;;;;;-1.57;88.63;103061.56;5030470;28;20084;-68
2024/03/05 05:00:33;;;;;;;4.30;1.90;;;;;;;-1.50;89.03;103067.53;5031259;28;20284;-69
2024/03/05 05:02:59;;;;;;;2.27;1.70;;;;;;;-1.48;88.89;103065.75;5031746;28;20141;-68
2024/03/05 05:05:25;;;;;;;2.93;2.47;;;;;;;-1.43;87.84;103063.94;5031365;28;20164;-69
2024/03/05 05:07:51;;;;;;;5.10;1.93;;;;;;;-1.31;86.85;103088.97;5013580;28;20065;-65
2024/03/05 05:10:17;;;;;;;2.30;2.10;;;;;;;-1.45;87.42;103059.59;5031907;28;20116;-70
2024/03/05 05:12:44;;;;;;;5.57;1.90;;;;;;;-1.38;86.87;103054.25;5030764;28;20311;-70
2024/03/05 05:15:12;;;;;;;5.80;1.70;;;;;;;-1.32;87.03;103063.72;5031417;28;20044;-67
2024/03/05 05:17:39;;;;;;;1.50;1.40;;;;;;;-1.48;87.17;103025.69;5031569;28;20280;-68
2024/03/05 05:20:09;;;;;;;5.33;2.07;;;;;;;-1.20;86.88;103076.53;5035720;28;20271;-70
2024/03/05 05:22:38;;;;;;;3.93;1.50;;;;;;;-1.19;86.49;103067.78;5036959;28;20279;-70
2024/03/05 05:25:05;;;;;;;6.57;1.75;;;;;;;-1.17;86.71;103055.56;5035851;28;20653;-71
2024/03/05 05:27:30;;;;;;;8.97;1.83;;;;;;;-1.11;86.36;103058.06;5035518;28;20103;-73
2024/03/05 05:29:57;;;;;;;4.07;1.90;;;;;;;-1.02;85.34;103081.41;5035882;28;20373;-67
2024/03/05 05:32:23;;;;;;;6.90;1.80;;;;;;;-0.99;86.02;103085.72;5033679;28;20728;-68
2024/03/05 05:34:49;;;;;;;13.80;2.80;;;;;;;-1.01;86.46;103088.34;5032291;28;20049;-70
2024/03/05 05:37:15;;;;;;;3.30;1.90;;;;;;;-1.10;85.42;103085.94;5034999;28;20268;-68
2024/03/05 05:39:41;;;;;;;2.63;1.90;;;;;;;-1.06;86.94;103090.22;5035278;28;20036;-69
2024/03/05 05:42:11;;;;;;;4.63;2.17;;;;;;;-1.01;86.45;103085.75;5035306;28;20358;-69
2024/03/05 05:44:37;;;;;;;5.40;1.97;;;;;;;-1.02;86.46;103091.88;5033629;28;20294;-68
2024/03/05 05:47:03;;;;;;;3.60;2.03;;;;;;;-1.18;85.95;103046.00;5017111;28;20268;-69
2024/03/05 05:49:32;;;;;;;4.20;2.00;;;;;;;-1.00;86.47;103078.75;5035235;28;20073;-67
2024/03/05 05:51:58;;;;;;;5.63;2.20;;;;;;;-0.94;86.41;103084.72;5035904;28;20284;-69
2024/03/05 05:54:24;;;;;;;10.17;2.17;;;;;;;-1.16;86.41;103041.59;5036168;28;20465;-67
2024/03/05 05:56:50;;;;;;;3.00;2.10;;;;;;;-1.05;85.80;103057.06;5035944;28;21171;-68
2024/03/05 05:59:16;;;;;;;10.80;1.77;;;;;;;-0.84;85.36;103102.84;5035596;28;20296;-68
2024/03/05 06:01:42;;;;;;;2.00;1.33;;;;;;;-1.06;85.42;103064.06;5035795;28;20072;-68
2024/03/05 06:04:09;;;;;;;8.20;3.40;;;;;;;-1.07;85.92;103057.09;5050555;28;20367;-66
2024/03/05 06:06:36;;;;;;;10.00;2.10;;;;;;;-0.86;86.34;103081.97;5035315;28;20466;-70
2024/03/05 06:09:12;;;;;;;3.17;1.40;;;;;;;-0.78;86.19;103098.34;5050878;28;20651;-67
2024/03/05 06:11:38;;;;;;;10.13;3.60;;;;;;;-0.81;85.20;103089.69;5062876;28;20277;-69
2024/03/05 06:14:06;;;;;;;6.07;1.60;;;;;;;-1.08;84.80;103055.38;5033551;28;20298;-67
2024/03/05 06:16:32;;;;;;;4.00;1.37;;;;;;;-0.82;85.18;103087.97;5032991;28;20366;-68
2024/03/05 06:18:58;;;;;;;5.33;1.87;;;;;;;-0.85;85.53;103078.44;5034733;28;20264;-67
2024/03/05 06:21:24;;;;;;;4.80;1.87;;;;;;;-0.78;84.41;103103.56;5033996;28;20272;-69
2024/03/05 06:23:52;;;;;;;4.47;1.67;;;;;;;-0.82;84.28;103109.78;5032656;28;20766;-68
2024/03/05 06:26:21;;;;;;;3.40;2.33;;;;;;;-1.03;84.10;103078.81;5031728;28;20061;-71
2024/03/05 06:28:47;;;;;;;1.67;1.50;;;;;;;-0.96;82.95;103102.19;5034037;28;20041;-67
2024/03/05 06:31:12;;;;;;;4.00;1.30;;;;;;;-1.08;82.67;103075.44;5049421;28;20503;-71
2024/03/05 06:33:38;;;;;;;7.20;1.77;;;;;;;-0.83;83.50;103117.66;5033914;28;20504;-69
2024/03/05 06:36:06;;;;;;;5.90;1.60;;;;;;;-0.88;82.84;103109.00;5033806;28;20117;-69
2024/03/05 06:38:35;;;;;;;5.90;1.70;;;;;;;-0.93;82.35;103112.59;5034346;28;20029;-69
2024/03/05 06:41:04;;;;;;;5.97;1.50;;;;;;;-1.16;83.18;103088.66;5034311;28;20282;-68
2024/03/05 06:43:32;;;;;;;9.15;2.13;;;;;;;-0.97;82.08;103120.53;5034301;28;20485;-69
2024/03/05 06:45:59;;;;;;;4.70;1.40;;;;;;;-1.12;79.24;103106.03;5033404;28;20037;-68
2024/03/05 06:48:26;;;;;;;8.03;3.07;;;;;;;-1.19;78.19;103088.72;5034646;28;20037;-69
2024/03/05 06:50:58;;;;;;;6.50;2.43;;;;;;;-1.09;78.22;103107.72;5034241;28;20276;-69
2024/03/05 06:58:53;;;;;;;8.07;2.60;;;;;;;-1.30;73.57;103067.16;5034523;28;20272;-70
2024/03/05 07:01:19;;;;;;;13.63;3.50;;;;;;;-1.07;73.65;103119.00;5033082;28;20310;-69
2024/03/05 07:03:47;;;;;;;3.03;2.17;;;;;;;-1.00;73.18;103129.31;5033743;28;20044;-63
2024/03/05 07:06:12;;;;;;;5.50;2.30;;;;;;;-1.14;72.74;103089.50;5036111;28;20304;-67
2024/03/05 07:08:40;;;;;;;7.30;1.63;;;;;;;-1.64;69.25;103015.56;5034611;28;20303;-67
2024/03/05 07:11:09;;;;;;;3.90;2.30;;;;;;;-0.95;68.81;103153.63;5032747;28;20675;-69
2024/03/05 07:13:36;;;;;;;7.37;3.27;;;;;;;-1.14;67.73;103113.03;5032256;28;20284;-68
2024/03/05 07:16:03;;;;;;;4.37;2.30;;;;;;;-1.08;67.99;103139.06;5032692;28;20033;-67
2024/03/05 07:18:29;;;;;;;4.13;1.80;;;;;;;-0.99;67.69;103144.13;5032709;28;20378;-67
2024/03/05 07:20:56;;;;;;;10.97;2.63;;;;;;;-0.99;67.53;103132.78;5033584;28;20351;-66
2024/03/05 07:23:21;;;;;;;12.87;2.93;;;;;;;-0.96;68.07;103123.13;5015722;28;20037;-68
2024/03/05 07:25:47;;;;;;;6.13;1.60;;;;;;;-0.80;66.69;103144.63;5031630;28;20875;-68
2024/03/05 07:28:15;;;;;;;4.03;1.80;;;;;;;-0.87;66.84;103127.28;5033103;28;20505;-64
2024/03/05 07:30:42;;;;;;;9.50;1.87;;;;;;;-0.81;65.96;103150.75;5032906;28;20640;-68
2024/03/05 07:33:10;;;;;;;7.93;1.80;;;;;;;-0.79;66.33;103135.00;5032971;28;20315;-67
2024/03/05 07:35:36;;;;;;;4.25;1.70;;;;;;;-0.91;65.95;103130.00;5033225;28;20269;-69
2024/03/05 07:38:02;;;;;;;5.73;2.37;;;;;;;-0.97;66.03;103115.31;5033390;28;20095;-67
2024/03/05 07:40:27;;;;;;;2.83;1.40;;;;;;;-0.95;65.99;103114.38;5032484;28;20037;-69
2024/03/05 07:42:53;;;;;;;1.80;1.40;;;;;;;-1.04;65.78;103098.88;5032487;28;20035;-67
2024/03/05 07:45:21;;;;;;;5.70;1.70;;;;;;;-0.82;66.14;103124.63;5033100;28;20442;-71
2024/03/05 07:47:48;;;;;;;6.70;1.90;;;;;;;-0.70;66.72;103129.56;5032128;28;20048;-68
2024/03/05 07:50:15;;;;;;;5.57;1.97;;;;;;;-0.72;68.04;103123.50;5034035;28;20272;-67
2024/03/05 07:52:46;;;;;;;2.90;1.60;;;;;;;-0.77;68.49;103109.66;5033500;28;20423;-67
2024/03/05 07:55:18;;;;;;;7.47;2.10;;;;;;;-0.50;69.34;103142.25;5034710;28;20271;-67
2024/03/05 07:57:45;;;;;;;11.93;2.40;;;;;;;-0.60;69.31;103119.75;5017241;28;20275;-67
2024/03/05 08:00:13;;;;;;;7.57;1.90;;;;;;;-0.55;69.56;103113.56;5032413;28;20268;-66
2024/03/05 08:02:44;;;;;;;3.20;1.60;;;;;;;-0.41;68.19;103132.41;5033284;28;20268;-69
2024/03/05 08:05:10;;;;;;;5.13;1.80;;;;;;;-0.56;68.20;103106.59;5032736;28;20394;-67
2024/03/05 08:08:01;;;;;;;5.03;1.90;;;;;;;-0.50;68.10;103122.16;5033009;28;20283;-67
2024/03/05 08:10:27;;;;;;;5.10;2.23;;;;;;;-0.62;67.70;103096.25;5034558;28;20370;-68
2024/03/05 08:12:55;;;;;;;6.63;1.60;;;;;;;-0.50;69.15;103131.78;5037208;28;20361;-67
2024/03/05 08:15:24;;;;;;;2.78;1.48;;;;;;;-0.67;69.44;103095.47;5032891;28;20509;-67
2024/03/05 08:17:50;;;;;;;6.28;1.70;;;;;;;-0.48;69.68;103119.50;5032074;28;20127;-69
2024/03/05 08:20:17;;;;;;;8.27;2.00;;;;;;;-0.32;68.94;103141.81;5032219;28;20412;-69
2024/03/05 08:22:46;;;;;;;5.60;1.40;;;;;;;-0.39;68.54;103130.63;5032147;28;20272;-69
2024/03/05 08:25:15;;;;;;;11.77;2.77;;;;;;;-0.45;68.56;103128.16;5032249;28;20296;-66
2024/03/05 08:27:44;;;;;;;6.00;2.10;;;;;;;-0.29;69.37;103140.88;5031945;28;20756;-68
2024/03/05 08:30:15;;;;;;;9.20;2.07;;;;;;;-0.36;68.15;103134.94;5032056;28;20295;-67
2024/03/05 08:32:41;;;;;;;4.50;1.80;;;;;;;-0.37;68.08;103139.31;5031889;28;20755;-69
2024/03/05 08:35:13;;;;;;;3.77;1.83;;;;;;;-0.37;68.57;103122.75;5032712;28;20362;-68
2024/03/05 08:37:45;;;;;;;8.17;2.00;;;;;;;-0.27;68.03;103134.75;5033437;28;20508;-68
2024/03/05 08:40:17;;;;;;;4.87;1.80;;;;;;;-0.35;66.57;103132.28;5031884;28;20747;-64
2024/03/05 08:42:49;;;;;;;3.77;1.67;;;;;;;-0.33;65.61;103130.47;5032191;28;20291;-70
2024/03/05 08:45:19;;;;;;;4.73;1.63;;;;;;;-0.19;66.03;103126.69;5063823;28;20299;-66
2024/03/05 08:47:50;;;;;;;6.47;2.27;;;;;;;-0.11;65.41;103157.06;5031772;28;20359;-67
2024/03/05 08:50:16;;;;;;;9.47;2.30;;;;;;;-0.06;63.30;103156.94;5033110;28;20501;-67
2024/03/05 08:52:43;;;;;;;10.40;1.70;;;;;;;0.00;62.03;103162.06;5032673;28;20318;-68
2024/03/05 08:55:11;;;;;;;4.43;1.93;;;;;;;0.06;60.85;103164.53;5066333;28;20372;-70
2024/03/05 08:57:37;;;;;;;4.80;2.80;;;;;;;-0.04;62.13;103134.19;5033675;28;20367;-69
2024/03/05 09:00:17;;;;;;;8.20;3.87;;;;;;;-0.10;60.98;103122.09;5047715;28;20286;-69
2024/03/05 09:02:46;;;;;;;13.67;3.30;;;;;;;0.23;61.52;103164.97;5016030;28;20338;-67
2024/03/05 09:05:13;;;;;;;6.47;3.37;;;;;;;0.05;63.03;103139.22;5030881;28;20382;-68
2024/03/05 09:07:40;;;;;;;5.33;2.27;;;;;;;0.16;63.62;103155.53;5029801;28;20801;-70
2024/03/05 09:10:07;;;;;;;4.67;2.40;;;;;;;0.07;63.38;103134.81;5027879;28;20311;-67
2024/03/05 09:12:33;;;;;;;4.93;1.60;;;;;;;0.28;61.97;103173.56;5013614;28;20365;-70
2024/03/05 09:14:58;;;;;;;6.30;1.77;;;;;;;-0.10;63.14;103147.44;5029874;28;20783;-70
2024/03/05 09:17:25;;;;;;;4.50;2.23;;;;;;;0.12;63.40;103159.13;5029665;28;20035;-65
2024/03/05 09:19:51;;;;;;;4.13;2.10;;;;;;;-0.08;63.13;103156.13;5030564;28;20041;-68
2024/03/05 09:22:16;;;;;;;5.23;1.50;;;;;;;0.02;63.62;103170.75;5032201;28;20335;-69
2024/03/05 09:24:45;;;;;;;9.00;2.87;;;;;;;-0.25;64.47;103137.31;5032172;28;20045;-67
2024/03/05 09:27:13;;;;;;;3.63;2.40;;;;;;;-0.13;64.53;103158.84;5031492;28;20425;-70
2024/03/05 09:29:41;;;;;;;8.30;2.30;;;;;;;-0.06;63.93;103160.41;5014752;28;20284;-69
2024/03/05 09:32:08;;;;;;;2.78;1.90;;;;;;;-0.21;62.99;103133.72;5031772;28;20762;-69
2024/03/05 09:34:44;;;;;;;2.97;1.80;;;;;;;-0.11;63.15;103158.81;5031985;28;20049;-70
2024/03/05 09:37:29;;;;;;;3.80;1.30;;;;;;;-0.09;64.22;103164.88;5028844;28;20367;-68
2024/03/05 09:39:55;;;;;;;3.27;1.67;;;;;;;-0.15;63.89;103151.91;5031111;28;20434;-70
2024/03/05 09:42:21;;;;;;;10.97;1.67;;;;;;;-0.09;64.36;103151.78;5047023;28;20029;-69
2024/03/05 09:44:52;;;;;;;5.70;1.97;;;;;;;-0.03;64.33;103143.75;5030557;28;20080;-72
2024/03/05 09:47:21;;;;;;;2.20;1.57;;;;;;;-0.40;64.24;103101.88;5012822;28;20335;-70
2024/03/05 09:49:49;;;;;;;5.10;2.45;;;;;;;-0.21;63.50;103102.31;5028776;28;20315;-71
2024/03/05 09:52:16;;;;;;;5.20;1.52;;;;;;;0.02;63.14;103139.31;5028506;28;20448;-69
2024/03/05 09:54:43;;;;;;;13.23;1.70;;;;;;;0.10;62.84;103134.72;5029255;28;20037;-70
2024/03/05 09:57:10;;;;;;;1.57;1.47;;;;;;;-0.03;62.94;103113.19;5027065;28;20285;-67
2024/03/05 09:59:39;;;;;;;6.17;2.10;;;;;;;0.03;63.17;103104.34;5029435;28;20275;-71
2024/03/05 10:02:08;;;;;;;;;;;;;;;0.20;62.67;103128.34;5029389;28;20376;-71
2024/03/05 10:04:40;;;;;;;4.95;1.80;;;;;;;0.23;61.75;103123.03;5031874;28;19924;-69
2024/03/05 10:07:07;;;;;;;2.23;1.93;;;;;;;0.02;61.40;103113.09;5032319;28;20089;-67
2024/03/05 10:09:34;;;;;;;4.63;1.77;;;;;;;0.19;62.06;103118.78;5034947;28;20350;-67
2024/03/05 10:12:04;;;;;;;3.83;1.67;;;;;;;0.00;62.12;103083.47;5033271;28;20276;-69
2024/03/05 10:14:30;;;;;;;4.10;1.37;;;;;;;0.37;62.22;103108.72;5029717;28;20268;-68
2024/03/05 10:17:03;;;;;;;5.47;1.80;;;;;;;0.17;62.16;103062.06;5032669;28;20276;-67
2024/03/05 10:19:41;;;;;;;2.40;1.60;;;;;;;0.43;61.18;103105.94;5033877;28;20280;-68
2024/03/05 10:22:10;;;;;;;4.05;1.42;;;;;;;0.36;61.45;103130.59;5031464;28;20311;-66
2024/03/05 10:24:36;;;;;;;6.70;1.73;;;;;;;0.14;61.88;103093.59;5033448;28;20365;-66
2024/03/05 10:27:03;;;;;;;5.57;1.80;;;;;;;-0.03;62.79;103059.94;5033478;28;20284;-68
2024/03/05 10:29:39;;;;;;;7.00;2.73;;;;;;;0.47;62.31;103133.78;5033599;28;20052;-67
2024/03/05 10:32:05;;;;;;;1.63;1.37;;;;;;;0.31;61.92;103117.63;5031921;28;20306;-66
2024/03/05 10:34:31;;;;;;;5.77;1.73;;;;;;;0.34;61.97;103119.28;5033254;28;20268;-66
2024/03/05 10:37:04;;;;;;;7.20;1.80;;;;;;;0.50;62.18;103128.47;5033917;28;20272;-67
2024/03/05 10:39:30;;;;;;;6.80;2.13;;;;;;;0.56;62.07;103116.06;5033620;28;20030;-66
2024/03/05 10:41:59;;;;;;;13.77;2.23;;;;;;;0.51;60.83;103107.44;5033864;28;20264;-64
2024/03/05 10:44:26;;;;;;;7.67;2.40;;;;;;;0.51;60.92;103111.84;5033065;28;20033;-66
2024/03/05 10:46:55;;;;;;;5.13;1.60;;;;;;;0.36;61.18;103113.13;5033255;28;20279;-67
2024/03/05 10:49:21;;;;;;;7.55;1.80;;;;;;;0.51;62.20;103151.16;5032323;28;20363;-67
2024/03/05 10:51:47;;;;;;;8.23;2.13;;;;;;;0.46;62.03;103126.84;5032476;28;20033;-65
2024/03/05 10:54:13;;;;;;;3.00;2.20;;;;;;;0.50;61.83;103133.72;5031113;28;20632;-64
2024/03/05 10:56:39;;;;;;;5.33;2.30;;;;;;;0.53;61.83;103128.38;5034229;28;20264;-66
2024/03/05 11:01:53;;;;;;;13.90;2.67;;;;;;;0.58;61.52;103144.88;5033593;28;20084;-67
2024/03/05 11:04:23;;;;;;;11.60;2.00;;;;;;;0.38;61.62;103118.31;5035225;28;20288;-66
2024/03/05 11:06:54;;;;;;;5.20;1.93;;;;;;;0.38;63.40;103120.94;5034796;28;20268;-67
2024/03/05 11:09:22;;;;;;;3.10;1.40;;;;;;;0.37;61.67;103108.72;5033473;28;20306;-64
2024/03/05 11:12:06;;;;;;;6.47;1.48;;;;;;;-0.14;61.82;103035.78;5034378;28;20276;-69
2024/03/05 11:14:34;;;;;;;3.23;1.50;;;;;;;0.21;61.99;103095.13;5032011;28;20041;-68
2024/03/05 11:17:09;;;;;;;2.30;1.60;;;;;;;0.41;62.25;103139.22;5030374;28;20271;-68
2024/03/05 11:19:44;;;;;;;5.33;1.90;;;;;;;0.11;62.79;103097.16;5034084;28;20037;-67
2024/03/05 11:22:24;;;;;;;3.57;2.00;;;;;;;0.17;62.67;103109.22;5034308;28;20287;-68
2024/03/05 11:24:59;;;;;;;2.63;1.67;;;;;;;0.13;62.77;103113.69;5030247;28;20292;-66
2024/03/05 11:27:28;;;;;;;5.80;1.63;;;;;;;0.30;63.44;103134.25;5032973;28;20327;-67
2024/03/05 11:30:17;;;;;;;5.95;1.88;;;;;;;0.35;63.68;103105.28;5032890;28;20283;-65
2024/03/05 11:32:43;;;;;;;2.43;1.60;;;;;;;0.53;62.39;103126.63;5030711;28;20180;-66
2024/03/05 11:35:13;;;;;;;5.80;2.13;;;;;;;0.36;61.52;103099.16;5032854;28;20276;-67